createdAt,value
2023-05-02T11:07:07.256Z,68.51
2023-05-02T11:09:52.574Z,67.62
2023-05-02T11:12:47.580Z,66.95
2023-05-02T11:15:33.305Z,66.36
2023-05-02T11:18:18.706Z,65.76
2023-05-02T11:21:29.983Z,66.19
2023-05-02T11:24:39.500Z,66.04
2023-05-02T11:27:31.152Z,65.14
2023-05-02T11:30:37.170Z,63.86
2023-05-02T11:33:22.493Z,62.07
2023-05-02T11:36:07.945Z,60.97
2023-05-02T11:38:53.036Z,59.89
2023-05-02T11:41:42.563Z,59.83
2023-05-02T11:44:28.463Z,59.41
2023-05-02T11:47:13.840Z,57.44
2023-05-02T11:50:02.264Z,56.34
2023-05-02T11:52:47.924Z,55.87
2023-05-02T11:55:32.894Z,56.29
2023-05-02T11:58:20.856Z,56.51
2023-05-02T12:01:17.202Z,55.93
2023-05-02T12:04:07.826Z,56.49
2023-05-02T12:06:59.487Z,56.16
2023-05-02T12:09:52.948Z,54.61
2023-05-02T12:12:40.781Z,54.12
2023-05-02T12:15:26.299Z,53.21
2023-05-02T12:18:13.526Z,53.43
2023-05-02T12:20:58.992Z,53.53
2023-05-02T12:23:44.613Z,54.08
2023-05-02T12:26:32.545Z,54.08
2023-05-02T12:29:17.951Z,53.57
2023-05-02T12:32:03.570Z,53.33
2023-05-02T12:34:49.158Z,51.54
2023-05-02T12:37:45.654Z,52.08
2023-05-02T12:40:33.294Z,52.62
2023-05-02T12:43:20.064Z,52.37
2023-05-02T12:46:11.877Z,53.19
2023-05-02T12:49:11.925Z,51.74
2023-05-02T12:51:57.771Z,51.29
2023-05-02T12:54:44.497Z,50.78
2023-05-02T12:57:30.318Z,51.78
2023-05-02T13:00:17.423Z,51.56
2023-05-02T13:03:02.713Z,50.98
2023-05-02T13:05:48.192Z,51.59
2023-05-02T13:08:34.533Z,50.61
2023-05-02T13:11:20.538Z,50.21
2023-05-02T13:14:06.149Z,50.51
2023-05-02T13:16:55.279Z,49.12
2023-05-02T13:19:44.607Z,49.24
2023-05-02T13:22:39.468Z,49.88
2023-05-02T13:25:25.760Z,49.62
2023-05-02T13:28:13.528Z,50.02
2023-05-02T13:30:59.087Z,48.39
2023-05-02T13:33:45.449Z,47.15
2023-05-02T13:36:30.827Z,47.57
2023-05-02T13:39:16.219Z,47.63
2023-05-02T13:42:06.132Z,47.35
2023-05-02T13:44:51.738Z,47.35
2023-05-02T13:47:38.340Z,46.27
2023-05-02T13:50:24.558Z,46.39
2023-05-02T13:53:10.197Z,45.95
2023-05-02T13:55:55.498Z,46.00
2023-05-02T13:58:40.702Z,46.98
2023-05-02T14:01:28.738Z,47.62
2023-05-02T14:04:14.339Z,47.06
2023-05-02T14:06:59.738Z,46.40
2023-05-02T14:09:45.043Z,46.12
2023-05-02T14:12:30.971Z,46.58
2023-05-02T14:15:16.700Z,47.73
2023-05-02T14:18:02.025Z,46.61
2023-05-02T14:20:47.143Z,45.87
2023-05-02T14:23:32.637Z,45.95
2023-05-02T14:26:17.835Z,45.86
2023-05-02T14:29:03.233Z,45.83
2023-05-02T14:31:48.854Z,46.28
2023-05-02T14:34:34.420Z,46.42
2023-05-02T14:37:19.721Z,45.35
2023-05-02T14:40:05.905Z,46.32
2023-05-02T14:42:52.345Z,46.56
2023-05-02T14:45:37.586Z,47.81
2023-05-02T14:48:22.954Z,48.13
2023-05-02T14:51:08.333Z,48.01
2023-05-02T14:53:54.302Z,48.00
2023-05-02T14:56:39.745Z,48.94
2023-05-02T14:59:28.441Z,48.55
2023-05-02T15:02:13.876Z,48.71
2023-05-02T15:04:59.660Z,49.67
2023-05-02T15:07:45.252Z,50.13
2023-05-02T15:10:30.502Z,50.15
2023-05-02T15:13:15.717Z,49.28
2023-05-02T15:16:01.431Z,49.53
2023-05-02T15:18:46.940Z,49.63
2023-05-02T15:21:32.778Z,50.00
2023-05-02T15:24:18.282Z,49.43
2023-05-02T15:27:04.133Z,49.32
2023-05-02T15:29:49.153Z,48.64
2023-05-02T15:32:34.754Z,47.52
2023-05-02T15:35:20.050Z,47.61
2023-05-02T15:38:06.532Z,47.02
2023-05-02T15:40:59.572Z,46.89
2023-05-02T15:43:44.972Z,47.00
2023-05-02T15:46:30.485Z,46.43
2023-05-02T15:49:15.803Z,46.42
2023-05-02T15:52:00.891Z,46.04
2023-05-02T15:54:46.578Z,45.76
2023-05-02T15:57:31.888Z,45.51
2023-05-02T16:00:17.929Z,45.54
2023-05-02T16:03:04.018Z,45.04
2023-05-02T16:05:52.776Z,45.44
2023-05-02T16:08:38.410Z,46.03
2023-05-02T16:11:23.659Z,44.92
2023-05-02T16:14:09.260Z,45.62
2023-05-02T16:16:56.043Z,45.40
2023-05-02T16:19:41.449Z,46.24
2023-05-02T16:22:28.275Z,46.88
2023-05-02T16:25:15.185Z,47.50
2023-05-02T16:28:01.150Z,47.71
2023-05-02T16:30:46.512Z,47.03
2023-05-02T16:33:31.754Z,46.68
2023-05-02T16:36:17.306Z,46.40
2023-05-02T16:39:02.703Z,46.27
2023-05-02T16:41:49.269Z,46.32
2023-05-02T16:44:34.677Z,46.42
2023-05-02T16:47:19.819Z,47.11
2023-05-02T16:50:06.220Z,46.78
2023-05-02T16:52:51.904Z,46.96
2023-05-02T16:55:37.128Z,46.74
2023-05-02T16:58:22.774Z,46.63
2023-05-02T17:01:08.533Z,46.83
2023-05-02T17:03:53.689Z,46.72
2023-05-02T17:06:39.079Z,47.10
2023-05-02T17:09:25.137Z,46.66
2023-05-02T17:12:11.630Z,47.29
2023-05-02T17:14:56.770Z,47.21
2023-05-02T17:17:42.658Z,47.10
2023-05-02T17:20:27.853Z,46.79
2023-05-02T17:23:13.123Z,47.36
2023-05-02T17:25:58.286Z,47.70
2023-05-02T17:28:46.586Z,47.21
2023-05-02T17:31:32.208Z,47.23
2023-05-02T17:34:17.388Z,47.78
2023-05-02T17:37:02.772Z,47.01
2023-05-02T17:39:49.213Z,47.41
2023-05-02T17:42:34.409Z,47.32
2023-05-02T17:45:19.982Z,47.32
2023-05-02T17:48:06.334Z,46.37
2023-05-02T17:50:51.490Z,46.62
2023-05-02T17:53:37.237Z,47.00
2023-05-02T17:56:22.578Z,47.30
2023-05-02T17:59:14.047Z,47.09
2023-05-02T18:01:59.308Z,47.24
2023-05-02T18:04:46.002Z,46.29
2023-05-02T18:07:31.570Z,46.56
2023-05-02T18:10:17.123Z,45.55
2023-05-02T18:13:02.273Z,45.31
2023-05-02T18:15:58.226Z,45.77
2023-05-02T18:18:43.756Z,45.83
2023-05-02T18:21:29.024Z,45.90
2023-05-02T18:24:14.203Z,45.47
2023-05-02T18:26:59.608Z,45.46
2023-05-02T18:29:44.975Z,45.21
2023-05-02T18:32:31.588Z,45.68
2023-05-02T18:35:17.320Z,44.97
2023-05-02T18:38:06.120Z,44.86
2023-05-02T18:40:51.598Z,44.63
2023-05-02T18:43:36.757Z,45.39
2023-05-02T18:46:22.086Z,44.64
2023-05-02T18:49:09.186Z,44.79
2023-05-02T18:51:54.457Z,44.41
2023-05-02T18:54:39.689Z,44.46
2023-05-02T18:57:25.389Z,44.18
2023-05-02T19:00:12.073Z,44.81
2023-05-02T19:02:57.639Z,44.20
2023-05-02T19:05:43.256Z,44.06
2023-05-02T19:08:28.646Z,44.61
2023-05-02T19:11:14.834Z,44.95
2023-05-02T19:14:03.270Z,44.36
2023-05-02T19:16:49.677Z,44.80
2023-05-02T19:19:35.246Z,44.48
2023-05-02T19:22:22.211Z,43.86
2023-05-02T19:25:09.471Z,44.09
2023-05-02T19:27:54.735Z,44.42
2023-05-02T19:30:41.633Z,44.91
2023-05-02T19:33:27.199Z,45.47
2023-05-02T19:36:12.642Z,46.07
2023-05-02T19:38:58.262Z,46.42
2023-05-02T19:41:44.131Z,46.29
2023-05-02T19:44:30.019Z,46.41
2023-05-02T19:47:15.663Z,46.47
2023-05-02T19:50:00.677Z,46.84
2023-05-02T19:52:46.271Z,46.95
2023-05-02T19:55:31.685Z,47.51
2023-05-02T19:58:16.808Z,47.47
2023-05-02T20:01:02.094Z,47.41
2023-05-02T20:03:47.435Z,47.37
2023-05-02T20:06:33.293Z,47.39
2023-05-02T20:09:18.715Z,47.21
2023-05-02T20:12:04.214Z,48.15
2023-05-02T20:14:49.493Z,48.26
2023-05-02T20:17:34.696Z,48.66
2023-05-02T20:20:20.227Z,49.18
2023-05-02T20:23:05.648Z,48.81
2023-05-02T20:25:51.483Z,49.42
2023-05-02T20:28:37.822Z,49.72
2023-05-02T20:31:23.201Z,49.46
2023-05-02T20:34:08.969Z,49.35
2023-05-02T20:36:54.222Z,49.52
2023-05-02T20:39:39.404Z,49.61
2023-05-02T20:42:25.742Z,49.65
2023-05-02T20:45:12.580Z,49.65
2023-05-02T20:47:57.876Z,49.97
2023-05-02T20:50:51.663Z,49.88
2023-05-02T20:53:37.915Z,49.81
2023-05-02T20:56:23.323Z,49.73
2023-05-02T20:59:08.946Z,49.67
2023-05-02T21:01:54.395Z,49.93
2023-05-02T21:04:42.102Z,50.36
2023-05-02T21:07:27.854Z,50.37
2023-05-02T21:10:13.499Z,51.30
2023-05-02T21:12:58.754Z,51.04
2023-05-02T21:15:44.262Z,50.88
2023-05-02T21:18:29.382Z,50.31
2023-05-02T21:21:14.954Z,50.52
2023-05-02T21:24:01.488Z,50.17
2023-05-02T21:26:47.017Z,51.00
2023-05-02T21:29:32.173Z,51.00
2023-05-02T21:32:17.697Z,50.77
2023-05-02T21:35:03.323Z,49.99
2023-05-02T21:37:48.759Z,50.16
2023-05-02T21:40:35.312Z,49.04
2023-05-02T21:43:20.775Z,49.68
2023-05-02T21:46:06.454Z,49.87
2023-05-02T21:48:51.772Z,49.12
2023-05-02T21:51:39.800Z,48.75
2023-05-02T21:54:25.505Z,48.97
2023-05-02T21:57:11.101Z,48.42
2023-05-02T21:59:56.457Z,48.25
2023-05-02T22:02:41.668Z,48.36
2023-05-02T22:05:27.365Z,48.38
2023-05-02T22:08:13.357Z,48.11
2023-05-02T22:10:59.065Z,48.38
2023-05-02T22:13:44.152Z,48.70
2023-05-02T22:16:29.720Z,48.60
2023-05-02T22:19:14.861Z,48.43
2023-05-02T22:22:01.549Z,47.71
2023-05-02T22:24:46.714Z,47.87
2023-05-02T22:27:32.034Z,47.68
2023-05-02T22:30:18.141Z,47.66
2023-05-02T22:33:03.789Z,47.91
2023-05-02T22:35:49.061Z,47.88
2023-05-02T22:38:34.900Z,47.67
2023-05-02T22:41:20.075Z,47.76
2023-05-02T22:44:05.623Z,48.05
2023-05-02T22:46:50.964Z,48.31
2023-05-02T22:49:36.268Z,48.40
2023-05-02T22:52:22.441Z,47.71
2023-05-02T22:55:09.240Z,48.39
2023-05-02T22:57:54.961Z,48.56
2023-05-02T23:00:40.277Z,48.56
2023-05-02T23:03:25.939Z,48.82
2023-05-02T23:06:11.656Z,48.74
2023-05-02T23:08:56.709Z,48.15
2023-05-02T23:11:42.189Z,48.54
2023-05-02T23:14:27.556Z,48.29
2023-05-02T23:17:13.015Z,48.53
2023-05-02T23:19:58.804Z,48.35
2023-05-02T23:22:45.336Z,49.10
2023-05-02T23:25:31.001Z,48.87
2023-05-02T23:28:16.066Z,48.48
2023-05-02T23:31:02.748Z,48.63
2023-05-02T23:33:48.161Z,49.03
2023-05-02T23:36:35.030Z,49.23
2023-05-02T23:39:20.336Z,48.73
2023-05-02T23:42:06.134Z,48.14
2023-05-02T23:44:53.627Z,48.83
2023-05-02T23:47:39.082Z,48.77
2023-05-02T23:50:24.445Z,48.50
2023-05-02T23:53:09.522Z,48.90
2023-05-02T23:55:54.981Z,48.91
2023-05-02T23:58:40.500Z,48.03
